Time;durP1;ratioP1;P1;durP2;ratioP2;P2;SDS_P1;SDS_P2;PMS_P1;PMS_P2;Temp;Humidity;BMP_temperature;BMP_pressure;BME280_temperature;BME280_humidity;BME280_pressure;Samples;Min_cycle;Max_cycle;Signal;HPM_P1;HPM_P2
2021/12/31 00:00:10;;;;;;;7.85;2.53;;;;;;;9.72;100.00;96991.47;5045999;28;20106;-70
2021/12/31 00:02:35;;;;;;;4.00;1.48;;;;;;;9.69;100.00;97006.09;5046044;28;20037;-70
2021/12/31 00:05:01;;;;;;;7.82;2.25;;;;;;;9.70;100.00;96989.03;5045981;28;20106;-70
2021/12/31 00:07:27;;;;;;;5.72;1.92;;;;;;;9.69;100.00;96987.41;5047277;28;20033;-70
2021/12/31 00:09:58;;;;;;;6.90;2.10;;;;;;;9.70;100.00;96989.03;5045881;28;20060;-73
2021/12/31 00:12:23;;;;;;;;;;;;;;;9.70;100.00;96989.03;5046967;28;20072;-71
2021/12/31 00:14:49;;;;;;;3.28;1.50;;;;;;;9.73;100.00;96987.78;5045410;28;20017;-71
2021/12/31 00:17:14;;;;;;;5.30;1.80;;;;;;;9.71;100.00;96990.66;5045361;28;20068;-70
2021/12/31 00:19:44;;;;;;;4.18;2.10;;;;;;;9.68;100.00;96988.44;5045512;28;20033;-70
2021/12/31 00:24:54;;;;;;;5.40;3.00;;;;;;;9.72;100.00;96986.94;5043639;28;20669;-70
2021/12/31 00:27:19;;;;;;;9.40;3.22;;;;;;;9.70;100.00;96982.88;5045750;28;20029;-70
2021/12/31 00:29:45;;;;;;;9.30;3.13;;;;;;;9.70;100.00;96975.66;5045585;28;20033;-71
2021/12/31 00:32:10;;;;;;;9.23;3.15;;;;;;;9.64;100.00;96983.78;5044588;28;20047;-70
2021/12/31 00:34:36;;;;;;;10.38;3.42;;;;;;;9.66;100.00;96990.53;5046792;28;20041;-71
2021/12/31 00:37:02;;;;;;;9.13;3.22;;;;;;;9.70;100.00;96996.22;5045032;28;20550;-71
2021/12/31 00:39:27;;;;;;;9.07;3.50;;;;;;;9.68;100.00;96991.13;5044729;28;20033;-72
2021/12/31 00:41:53;;;;;;;14.05;3.40;;;;;;;9.69;100.00;96981.25;5045003;28;20033;-71
2021/12/31 00:44:20;;;;;;;9.32;4.03;;;;;;;9.61;100.00;96978.91;5045023;28;20118;-70
2021/12/31 00:46:47;;;;;;;15.13;4.28;;;;;;;9.60;100.00;96979.94;5028083;28;20468;-71
2021/12/31 00:49:13;;;;;;;6.15;3.30;;;;;;;9.61;100.00;96986.91;5043804;28;20037;-70
2021/12/31 00:51:39;;;;;;;9.05;3.15;;;;;;;9.55;100.00;96982.50;5045582;28;20040;-70
2021/12/31 00:54:05;;;;;;;12.13;4.43;;;;;;;9.52;100.00;96978.44;5043962;28;20047;-70
2021/12/31 00:56:30;;;;;;;10.00;4.10;;;;;;;9.55;100.00;96988.66;5044157;28;20033;-70
2021/12/31 00:58:56;;;;;;;10.45;3.78;;;;;;;9.57;100.00;96981.25;5044718;28;21107;-71
2021/12/31 01:01:22;;;;;;;8.60;3.15;;;;;;;9.52;100.00;96981.09;5044896;28;20637;-71
2021/12/31 01:03:48;;;;;;;9.57;3.40;;;;;;;9.50;100.00;96975.19;5044125;28;20037;-72
2021/12/31 01:06:15;;;;;;;7.85;3.70;;;;;;;9.52;100.00;96972.28;5045165;28;20218;-72
2021/12/31 01:08:41;;;;;;;9.65;3.72;;;;;;;9.47;100.00;96983.63;5045893;28;20468;-71
2021/12/31 01:11:07;;;;;;;8.18;3.53;;;;;;;9.45;100.00;96973.19;5043601;28;20044;-71
2021/12/31 01:13:49;;;;;;;9.90;2.83;;;;;;;9.43;100.00;96990.47;5045189;28;20041;-71
2021/12/31 01:16:17;;;;;;;11.55;3.60;;;;;;;9.45;100.00;96985.72;5045447;28;20034;-70
2021/12/31 01:21:20;;;;;;;14.52;3.60;;;;;;;9.41;100.00;96987.22;5042933;28;20037;-71
2021/12/31 01:23:46;;;;;;;16.98;3.80;;;;;;;9.41;100.00;96979.19;5043341;28;20139;-71
2021/12/31 01:26:12;;;;;;;14.13;4.50;;;;;;;9.42;100.00;96981.66;5044139;28;20029;-70
2021/12/31 01:28:37;;;;;;;17.67;4.05;;;;;;;9.41;100.00;96992.53;5044820;28;20412;-72
2021/12/31 01:31:04;;;;;;;13.90;4.25;;;;;;;9.43;100.00;96974.47;5042652;28;20084;-72
2021/12/31 01:33:29;;;;;;;10.23;3.92;;;;;;;9.41;100.00;96971.19;5044466;28;20032;-72
2021/12/31 01:35:55;;;;;;;11.95;4.35;;;;;;;9.39;100.00;96979.44;5042232;28;20551;-71
2021/12/31 01:38:21;;;;;;;15.68;4.55;;;;;;;9.43;100.00;96979.81;5044575;28;20025;-70
2021/12/31 01:40:48;;;;;;;10.32;3.45;;;;;;;9.36;100.00;96979.91;5042954;28;20159;-72
2021/12/31 01:43:14;;;;;;;11.00;3.78;;;;;;;9.34;100.00;96986.47;5044501;28;20048;-71
2021/12/31 01:45:55;;;;;;;14.30;4.53;;;;;;;9.36;100.00;96979.09;5044258;28;20060;-71
2021/12/31 01:49:04;;;;;;;;;;;;;;;9.38;100.00;96982.34;5042830;28;20062;-71
2021/12/31 01:51:10;;;;;;;10.65;3.85;;;;;;;9.35;100.00;96969.44;5035430;28;19917;-70
2021/12/31 01:53:35;;;;;;;9.68;3.33;;;;;;;9.34;100.00;96979.31;5043021;28;20041;-71
2021/12/31 01:56:03;;;;;;;12.98;4.55;;;;;;;9.34;100.00;96981.16;5044380;28;20037;-71
2021/12/31 01:58:29;;;;;;;15.52;4.32;;;;;;;9.26;100.00;96971.63;5044213;28;20017;-73
2021/12/31 02:00:54;;;;;;;16.33;4.50;;;;;;;9.28;100.00;96976.72;5043929;28;20095;-71
2021/12/31 02:03:23;;;;;;;16.50;4.57;;;;;;;9.23;100.00;96977.41;5044351;28;20459;-70
2021/12/31 02:05:49;;;;;;;13.60;4.82;;;;;;;9.28;100.00;96979.41;5045763;28;20037;-71
2021/12/31 02:08:16;;;;;;;14.85;3.40;;;;;;;9.27;100.00;96980.44;5043368;28;20159;-71
2021/12/31 02:10:41;;;;;;;12.55;4.50;;;;;;;9.26;100.00;96984.97;5044380;28;20471;-71
2021/12/31 02:13:08;;;;;;;14.80;3.70;;;;;;;9.22;100.00;96975.78;5043077;28;20036;-71
2021/12/31 02:15:34;;;;;;;18.55;4.13;;;;;;;9.26;100.00;96978.78;5044599;28;20047;-71
2021/12/31 02:18:00;;;;;;;12.70;4.35;;;;;;;9.25;100.00;96977.16;5042492;28;20021;-71
2021/12/31 02:20:42;;;;;;;16.52;4.45;;;;;;;9.24;100.00;96979.03;5045206;28;20475;-71
2021/12/31 02:23:20;;;;;;;10.20;3.78;;;;;;;9.23;100.00;96979.25;5043134;28;20044;-71
2021/12/31 02:25:45;;;;;;;15.73;4.40;;;;;;;9.24;100.00;96972.88;5042791;28;20388;-71
2021/12/31 02:28:13;;;;;;;11.50;4.03;;;;;;;9.25;100.00;96979.84;5042139;28;20037;-71
2021/12/31 02:30:39;;;;;;;11.93;3.28;;;;;;;9.19;100.00;96982.41;5044007;28;20033;-70
2021/12/31 02:33:04;;;;;;;11.95;3.85;;;;;;;9.23;100.00;96989.94;5042680;28;20033;-71
2021/12/31 02:35:32;;;;;;;11.15;3.55;;;;;;;9.19;100.00;96993.06;5043660;28;20132;-71
2021/12/31 02:37:57;;;;;;;13.70;4.43;;;;;;;9.18;100.00;96983.44;5040475;28;20400;-71
2021/12/31 02:40:24;;;;;;;9.25;3.35;;;;;;;9.18;100.00;96987.94;5042469;28;20048;-71
2021/12/31 02:42:50;;;;;;;12.48;3.97;;;;;;;9.18;100.00;96986.13;5044683;28;20391;-72
2021/12/31 02:45:16;;;;;;;11.20;3.15;;;;;;;9.20;100.00;96980.53;5043502;28;20037;-70
2021/12/31 02:47:46;;;;;;;16.13;4.00;;;;;;;9.19;100.00;96986.94;5043852;28;20476;-71
2021/12/31 02:50:18;;;;;;;18.73;3.58;;;;;;;9.16;100.00;96987.34;5042697;28;20036;-70
2021/12/31 02:52:48;;;;;;;8.10;3.13;;;;;;;9.16;100.00;96982.84;5018095;28;20090;-71
2021/12/31 02:55:15;;;;;;;9.38;3.13;;;;;;;9.14;100.00;96986.78;5042096;28;20088;-71
2021/12/31 02:57:42;;;;;;;9.85;3.55;;;;;;;9.14;100.00;96982.25;5043614;28;20056;-71
2021/12/31 03:00:08;;;;;;;14.60;3.83;;;;;;;9.14;100.00;96982.25;5042337;28;20083;-71
2021/12/31 03:02:38;;;;;;;14.18;3.88;;;;;;;9.19;100.00;96977.06;5043247;28;20049;-71
2021/12/31 03:05:04;;;;;;;8.05;2.65;;;;;;;9.14;100.00;96976.91;5042885;28;20129;-71
2021/12/31 03:07:33;;;;;;;16.52;4.13;;;;;;;9.14;100.00;96978.78;5049184;28;20048;-70
2021/12/31 03:09:58;;;;;;;12.57;3.80;;;;;;;9.11;100.00;96966.69;5047483;28;20068;-71
2021/12/31 03:12:25;;;;;;;13.43;3.70;;;;;;;9.14;100.00;96965.41;5051209;28;20427;-72
2021/12/31 03:14:54;;;;;;;7.60;2.50;;;;;;;9.09;100.00;96968.75;5049208;28;20040;-71
2021/12/31 03:17:20;;;;;;;9.27;3.42;;;;;;;9.09;100.00;96955.41;5049249;28;20041;-71
2021/12/31 03:19:45;;;;;;;8.10;2.97;;;;;;;9.07;100.00;96952.16;5048850;28;20566;-72
2021/12/31 03:22:11;;;;;;;12.45;3.80;;;;;;;9.10;100.00;96957.03;5049354;28;20668;-71
2021/12/31 03:24:37;;;;;;;10.98;3.38;;;;;;;9.08;100.00;96956.44;5049216;28;20028;-72
2021/12/31 03:27:03;;;;;;;12.07;3.55;;;;;;;9.10;100.00;96957.03;5049066;28;20036;-71
2021/12/31 03:29:28;;;;;;;9.25;3.45;;;;;;;9.10;100.00;96953.56;5048540;28;20124;-72
2021/12/31 03:31:54;;;;;;;11.23;2.88;;;;;;;9.08;100.00;96943.09;5047562;28;20132;-71
2021/12/31 03:34:20;;;;;;;17.98;3.63;;;;;;;9.08;100.00;96945.78;5049861;28;20047;-71
2021/12/31 03:36:46;;;;;;;11.77;4.03;;;;;;;9.09;100.00;96947.41;5048340;28;20554;-71
2021/12/31 03:39:11;;;;;;;15.75;4.22;;;;;;;9.07;100.00;96949.50;5046611;28;20447;-71
2021/12/31 03:41:37;;;;;;;3.85;1.80;;;;;;;9.04;100.00;96943.81;5050470;28;20561;-71
2021/12/31 03:44:05;;;;;;;12.88;2.97;;;;;;;9.02;100.00;96941.34;5048776;28;20827;-71
2021/12/31 03:46:31;;;;;;;11.80;3.15;;;;;;;9.02;100.00;96938.66;5049298;28;20148;-71
2021/12/31 03:48:57;;;;;;;11.43;3.25;;;;;;;9.04;100.00;96947.28;5048701;28;20121;-70
2021/12/31 03:51:22;;;;;;;9.52;3.05;;;;;;;9.03;100.00;96945.66;5049018;28;20041;-72
2021/12/31 03:53:48;;;;;;;9.55;3.10;;;;;;;9.05;100.00;96946.25;5049013;28;20041;-73
2021/12/31 03:56:15;;;;;;;10.68;3.13;;;;;;;9.07;100.00;96943.34;5049264;28;20048;-70
2021/12/31 03:58:40;;;;;;;8.75;3.20;;;;;;;9.06;100.00;96947.88;5047988;28;20356;-70
2021/12/31 04:01:06;;;;;;;12.30;3.53;;;;;;;9.03;100.00;96942.19;5049474;28;20049;-71
2021/12/31 04:03:32;;;;;;;5.07;2.50;;;;;;;9.00;100.00;96943.44;5050192;28;20044;-72
2021/12/31 04:05:57;;;;;;;8.10;3.10;;;;;;;9.04;100.00;96933.94;5050787;28;20044;-73
2021/12/31 04:08:23;;;;;;;10.15;3.47;;;;;;;9.02;100.00;96930.66;5048656;28;20033;-71
2021/12/31 04:10:48;;;;;;;10.40;3.00;;;;;;;9.00;100.00;96930.06;5049700;28;20498;-71
2021/12/31 04:13:14;;;;;;;10.13;2.78;;;;;;;8.98;100.00;96934.84;5049794;28;20480;-71
2021/12/31 04:15:40;;;;;;;10.55;3.35;;;;;;;8.98;100.00;96924.16;5049230;28;20052;-70
2021/12/31 04:18:05;;;;;;;11.93;3.17;;;;;;;8.97;100.00;96927.88;5045085;28;20041;-71
2021/12/31 04:20:35;;;;;;;13.27;3.35;;;;;;;8.95;100.00;96927.28;5047116;28;20047;-71
2021/12/31 04:23:03;;;;;;;10.13;2.95;;;;;;;8.90;100.00;96919.13;5045099;28;20047;-71
2021/12/31 04:25:29;;;;;;;13.75;3.20;;;;;;;8.93;100.00;96918.69;5045279;28;20045;-70
2021/12/31 04:27:55;;;;;;;7.05;2.55;;;;;;;8.91;100.00;96916.25;5044851;28;20048;-70
2021/12/31 04:30:20;;;;;;;9.70;2.90;;;;;;;8.90;100.00;96913.81;5047145;28;20037;-70
2021/12/31 04:32:46;;;;;;;7.43;2.42;;;;;;;8.90;100.00;96927.16;5046382;28;20037;-71
2021/12/31 04:35:12;;;;;;;19.60;3.45;;;;;;;8.87;100.00;96927.56;5027902;28;20039;-72
2021/12/31 04:37:40;;;;;;;9.82;3.17;;;;;;;8.89;100.00;96934.34;5045761;28;20067;-71
2021/12/31 04:40:10;;;;;;;6.10;2.90;;;;;;;8.92;100.00;96931.22;5045454;28;20677;-71
2021/12/31 04:42:38;;;;;;;10.18;3.20;;;;;;;8.96;100.00;96936.94;5045970;28;20131;-71
2021/12/31 04:45:03;;;;;;;9.48;3.08;;;;;;;8.93;100.00;96940.03;5045037;28;20094;-70
2021/12/31 04:47:29;;;;;;;10.48;2.85;;;;;;;8.88;100.00;96938.06;5045884;28;20037;-71
2021/12/31 04:49:54;;;;;;;7.22;3.10;;;;;;;8.90;100.00;96935.97;5045580;28;20033;-70
2021/12/31 04:52:20;;;;;;;5.80;2.45;;;;;;;8.86;100.00;96939.31;5044544;28;20570;-71
2021/12/31 04:54:45;;;;;;;5.50;3.13;;;;;;;8.89;100.00;96933.53;5045690;28;20037;-70
2021/12/31 04:57:11;;;;;;;13.50;3.45;;;;;;;8.91;100.00;96942.94;5043246;28;20059;-70
2021/12/31 04:59:36;;;;;;;11.68;3.15;;;;;;;8.83;100.00;96937.91;5044968;28;20037;-71
2021/12/31 05:02:02;;;;;;;22.60;3.97;;;;;;;8.79;100.00;96925.22;5043083;28;20361;-73
2021/12/31 05:04:27;;;;;;;5.55;2.85;;;;;;;8.75;100.00;96929.41;5045691;28;20078;-70
2021/12/31 05:06:53;;;;;;;10.70;3.25;;;;;;;8.79;100.00;96935.91;5044784;28;20060;-70
2021/12/31 05:09:18;;;;;;;9.70;3.17;;;;;;;8.76;100.00;96933.69;5043827;28;20072;-71
2021/12/31 05:11:44;;;;;;;13.82;3.55;;;;;;;8.75;100.00;96945.41;5046283;28;20045;-72
2021/12/31 05:14:10;;;;;;;8.15;3.45;;;;;;;8.78;100.00;96940.44;5045254;28;20478;-70
2021/12/31 05:16:35;;;;;;;13.20;3.55;;;;;;;8.75;100.00;96940.06;5044923;28;20182;-71
2021/12/31 05:19:03;;;;;;;9.18;2.97;;;;;;;8.69;100.00;96936.44;5046994;28;20036;-71
2021/12/31 05:21:29;;;;;;;8.95;3.88;;;;;;;8.65;100.00;96938.75;5045121;28;20460;-71
2021/12/31 05:23:54;;;;;;;12.63;3.60;;;;;;;8.53;100.00;96929.88;5043362;28;20344;-71
2021/12/31 05:26:20;;;;;;;6.90;2.45;;;;;;;8.51;100.00;96926.63;5044833;28;20021;-71
2021/12/31 05:28:45;;;;;;;8.93;3.47;;;;;;;8.46;100.00;96926.47;5044449;28;20086;-71
2021/12/31 05:31:11;;;;;;;11.90;3.75;;;;;;;8.40;100.00;96929.19;5043586;28;20142;-71
2021/12/31 05:33:36;;;;;;;8.90;3.78;;;;;;;8.35;100.00;96925.38;5044651;28;20040;-73
2021/12/31 05:36:02;;;;;;;8.80;3.70;;;;;;;8.30;100.00;96933.19;5044754;28;20036;-70
2021/12/31 05:38:27;;;;;;;10.18;3.42;;;;;;;8.28;100.00;96926.44;5043335;28;20555;-71
2021/12/31 05:40:53;;;;;;;13.27;4.22;;;;;;;8.24;100.00;96923.41;5043966;28;20052;-72
2021/12/31 05:43:19;;;;;;;9.07;4.20;;;;;;;8.19;100.00;96917.13;5043830;28;20033;-71
2021/12/31 05:45:44;;;;;;;16.58;4.65;;;;;;;8.17;100.00;96927.16;5043611;28;20582;-71
2021/12/31 05:48:10;;;;;;;8.68;3.67;;;;;;;8.15;100.00;96923.91;5044793;28;20043;-70
2021/12/31 05:50:35;;;;;;;10.30;4.00;;;;;;;8.14;100.00;96928.44;5045030;28;20037;-71
2021/12/31 05:53:04;;;;;;;10.55;4.35;;;;;;;8.09;100.00;96923.78;5040747;28;20033;-72
2021/12/31 05:55:30;;;;;;;10.73;4.20;;;;;;;8.08;100.00;96927.47;5043311;28;20040;-73
2021/12/31 05:57:56;;;;;;;13.80;4.75;;;;;;;8.05;100.00;96930.56;5043564;28;20029;-72
2021/12/31 06:00:23;;;;;;;8.65;3.30;;;;;;;8.03;100.00;96919.34;5044912;28;20086;-71
2021/12/31 06:02:49;;;;;;;9.63;3.88;;;;;;;7.97;100.00;96914.88;5045093;28;20064;-70
2021/12/31 06:05:14;;;;;;;11.68;3.78;;;;;;;8.03;100.00;96921.19;5042374;28;20380;-72
2021/12/31 06:07:40;;;;;;;12.00;4.38;;;;;;;8.06;100.00;96932.19;5044832;28;20029;-71
2021/12/31 06:10:06;;;;;;;13.02;4.50;;;;;;;8.12;100.00;96933.19;5043581;28;20037;-72
2021/12/31 06:12:34;;;;;;;7.65;3.78;;;;;;;8.21;100.00;96931.84;5044853;28;20105;-70
2021/12/31 06:15:03;;;;;;;8.45;3.05;;;;;;;8.23;100.00;96934.28;5043762;28;20071;-72
2021/12/31 06:17:29;;;;;;;11.52;4.72;;;;;;;8.23;100.00;96937.75;5043581;28;20400;-71
2021/12/31 06:19:55;;;;;;;12.55;3.78;;;;;;;8.19;100.00;96935.78;5042369;28;20476;-70
2021/12/31 06:22:24;;;;;;;14.07;4.90;;;;;;;8.13;100.00;96931.31;5044469;28;20396;-71
2021/12/31 06:24:51;;;;;;;19.63;5.03;;;;;;;8.15;100.00;96938.06;5042308;28;20456;-72
2021/12/31 06:27:17;;;;;;;12.02;5.00;;;;;;;8.10;100.00;96928.06;5043098;28;20048;-71
2021/12/31 06:29:43;;;;;;;16.00;5.20;;;;;;;8.03;100.00;96935.31;5046151;28;20040;-71
2021/12/31 06:32:09;;;;;;;16.98;5.65;;;;;;;8.03;100.00;96937.19;5042800;28;20391;-71
2021/12/31 06:34:34;;;;;;;9.32;3.65;;;;;;;7.99;100.00;96931.44;5044965;28;20039;-71
2021/12/31 06:37:00;;;;;;;14.13;5.28;;;;;;;7.99;100.00;96942.13;5043244;28;20071;-71
2021/12/31 06:39:27;;;;;;;8.80;4.03;;;;;;;8.01;100.00;96937.38;5042446;28;20043;-70
2021/12/31 06:41:53;;;;;;;13.45;5.65;;;;;;;7.98;100.00;96934.34;5023830;28;20476;-73
2021/12/31 06:44:18;;;;;;;13.25;5.57;;;;;;;8.03;100.00;96934.50;5043541;28;20053;-71
2021/12/31 06:46:44;;;;;;;14.25;5.10;;;;;;;8.03;100.00;96935.31;5043334;28;20033;-70
2021/12/31 06:49:09;;;;;;;12.75;5.18;;;;;;;8.07;100.00;96941.00;5043020;28;20113;-70
2021/12/31 06:51:35;;;;;;;9.18;5.68;;;;;;;8.02;100.00;96933.69;5043972;28;20037;-70
2021/12/31 06:54:01;;;;;;;12.05;4.25;;;;;;;8.03;100.00;96942.50;5041950;28;20093;-71
2021/12/31 06:56:26;;;;;;;13.80;5.25;;;;;;;8.02;100.00;96947.03;5043673;28;20041;-70
2021/12/31 06:58:52;;;;;;;13.00;5.30;;;;;;;8.05;100.00;96935.91;5042421;28;20175;-72
2021/12/31 07:01:17;;;;;;;16.77;5.97;;;;;;;8.10;100.00;96937.94;5042595;28;20076;-71
2021/12/31 07:03:43;;;;;;;8.32;3.90;;;;;;;8.13;100.00;96945.47;5043411;28;20102;-71
2021/12/31 07:06:09;;;;;;;21.80;5.95;;;;;;;8.20;100.00;96948.06;5042144;28;20587;-72
2021/12/31 07:08:34;;;;;;;15.63;6.80;;;;;;;8.22;100.00;96944.13;5039639;28;20067;-71
2021/12/31 07:11:00;;;;;;;12.80;5.93;;;;;;;8.23;100.00;96948.44;5042524;28;20590;-70
2021/12/31 07:13:25;;;;;;;10.75;4.93;;;;;;;8.25;100.00;96942.88;5041897;28;20041;-70
2021/12/31 07:15:51;;;;;;;9.00;4.53;;;;;;;8.20;100.00;96948.88;5044877;28;20029;-71
2021/12/31 07:18:21;;;;;;;16.73;5.55;;;;;;;8.22;100.00;96927.31;5041808;28;20033;-72
2021/12/31 07:20:47;;;;;;;12.10;4.82;;;;;;;8.22;100.00;96932.66;5042706;28;20037;-70
2021/12/31 07:23:14;;;;;;;12.68;5.88;;;;;;;8.22;100.00;96932.66;5041897;28;20048;-70
2021/12/31 07:25:40;;;;;;;13.57;6.03;;;;;;;8.27;100.00;96932.81;5040643;28;20114;-71
2021/12/31 07:28:07;;;;;;;11.68;5.35;;;;;;;8.20;100.00;96924.88;5042227;28;20040;-71
2021/12/31 07:30:33;;;;;;;17.75;5.45;;;;;;;8.21;100.00;96931.03;5042016;28;20079;-71
2021/12/31 07:32:58;;;;;;;11.75;5.30;;;;;;;8.23;100.00;96926.28;5042743;28;20060;-70
2021/12/31 07:35:25;;;;;;;17.60;5.18;;;;;;;8.23;100.00;96923.63;5042398;28;20033;-70
2021/12/31 07:37:56;;;;;;;9.38;4.95;;;;;;;8.26;100.00;96928.53;5042539;28;20048;-71
2021/12/31 07:40:27;;;;;;;;;;;;;;;8.22;100.00;96932.66;5041925;28;20079;-70
2021/12/31 07:42:53;;;;;;;23.85;7.78;;;;;;;8.19;100.00;96936.59;5043085;28;19916;-71
2021/12/31 07:45:18;;;;;;;12.68;5.03;;;;;;;8.15;100.00;96934.56;5043212;28;20053;-70
2021/12/31 07:47:44;;;;;;;10.70;3.35;;;;;;;8.14;100.00;96943.63;5044533;28;20124;-71
2021/12/31 07:50:11;;;;;;;11.80;4.88;;;;;;;8.17;100.00;96937.84;5042642;28;20033;-72
2021/12/31 07:52:37;;;;;;;9.38;3.60;;;;;;;8.13;100.00;96948.13;5045085;28;20064;-71
2021/12/31 07:55:03;;;;;;;8.15;3.85;;;;;;;8.16;100.00;96941.53;5044656;28;20080;-71
2021/12/31 07:57:28;;;;;;;6.90;3.22;;;;;;;8.21;100.00;96944.38;5047253;28;20117;-71
2021/12/31 07:59:54;;;;;;;15.02;5.13;;;;;;;8.22;100.00;96944.13;5047017;28;20412;-70
2021/12/31 08:02:21;;;;;;;11.82;4.38;;;;;;;8.25;100.00;96949.03;5046220;28;20041;-70
2021/12/31 08:04:47;;;;;;;8.65;3.97;;;;;;;8.27;100.00;96941.63;5046987;28;20073;-72
2021/12/31 08:07:12;;;;;;;13.35;4.32;;;;;;;8.29;100.00;96949.41;5045382;28;20124;-71
2021/12/31 08:09:38;;;;;;;12.85;4.50;;;;;;;8.29;100.00;96939.56;5045500;28;20364;-71
2021/12/31 08:12:04;;;;;;;5.88;3.63;;;;;;;8.30;100.00;96959.84;5046911;28;20550;-70
2021/12/31 08:14:29;;;;;;;10.52;3.80;;;;;;;8.33;100.00;96937.28;5048102;28;20068;-70
2021/12/31 08:16:55;;;;;;;8.05;2.92;;;;;;;8.34;100.00;96949.56;5045283;28;20041;-70
2021/12/31 08:19:20;;;;;;;13.93;3.92;;;;;;;8.34;100.00;96954.91;5047220;28;20103;-71
2021/12/31 08:21:46;;;;;;;9.57;4.07;;;;;;;8.23;100.00;96959.09;5047457;28;20096;-71
2021/12/31 08:24:11;;;;;;;11.80;4.30;;;;;;;8.26;100.00;96953.34;5046794;28;20029;-70
2021/12/31 08:26:38;;;;;;;6.90;3.13;;;;;;;8.25;100.00;96957.03;5046137;28;20424;-71
2021/12/31 08:29:04;;;;;;;11.07;4.00;;;;;;;8.28;100.00;96961.09;5047285;28;20045;-71
2021/12/31 08:31:30;;;;;;;7.50;3.70;;;;;;;8.34;100.00;96960.22;5046711;28;20045;-71
2021/12/31 08:33:55;;;;;;;10.70;3.80;;;;;;;8.34;100.00;96970.91;5047006;28;20353;-71
2021/12/31 08:36:21;;;;;;;8.43;4.10;;;;;;;8.37;100.00;96962.47;5046944;28;20060;-71
2021/12/31 08:38:46;;;;;;;8.80;3.80;;;;;;;8.39;100.00;96952.38;5044040;28;20048;-72
2021/12/31 08:41:15;;;;;;;6.15;3.05;;;;;;;8.32;100.00;96952.44;5045787;28;20529;-71
2021/12/31 08:43:40;;;;;;;9.07;3.45;;;;;;;8.34;100.00;96945.03;5046337;28;20412;-70
2021/12/31 08:46:06;;;;;;;6.20;3.17;;;;;;;8.35;100.00;96940.56;5047841;28;20048;-71
2021/12/31 08:48:32;;;;;;;8.23;3.28;;;;;;;8.35;100.00;96936.03;5046218;28;20048;-70
2021/12/31 08:50:57;;;;;;;8.77;3.45;;;;;;;8.37;100.00;96933.94;5046019;28;20033;-70
2021/12/31 08:53:26;;;;;;;11.07;3.50;;;;;;;8.47;100.00;96940.59;5045307;28;20033;-70
2021/12/31 08:55:51;;;;;;;8.27;3.63;;;;;;;8.41;100.00;96944.19;5030896;28;20043;-71
2021/12/31 08:58:17;;;;;;;7.65;3.20;;;;;;;8.46;100.00;96941.66;5045913;28;20037;-70
2021/12/31 09:00:42;;;;;;;10.13;3.83;;;;;;;8.58;100.00;96932.69;5044450;28;20090;-70
2021/12/31 09:03:08;;;;;;;9.70;3.88;;;;;;;8.69;100.00;96941.78;5044822;28;20063;-70
2021/12/31 09:05:33;;;;;;;9.52;3.58;;;;;;;8.76;100.00;96952.38;5045201;28;20080;-70
2021/12/31 09:07:59;;;;;;;10.90;3.38;;;;;;;8.77;100.00;96951.34;5044999;28;20506;-71
2021/12/31 09:10:25;;;;;;;8.43;3.30;;;;;;;8.89;100.00;96949.53;5044576;28;20364;-70
2021/12/31 09:12:50;;;;;;;6.40;2.80;;;;;;;8.80;100.00;96951.72;5045884;28;20106;-70
2021/12/31 09:15:16;;;;;;;6.10;2.70;;;;;;;8.72;100.00;96957.34;5045316;28;20549;-70
2021/12/31 09:17:41;;;;;;;7.47;3.50;;;;;;;8.70;100.00;96950.59;5045672;28;20037;-70
2021/12/31 09:20:08;;;;;;;9.88;3.35;;;;;;;8.64;100.00;96950.47;5044433;28;20426;-70
2021/12/31 09:22:33;;;;;;;8.65;2.97;;;;;;;8.63;100.00;96959.50;5045363;28;20037;-70
2021/12/31 09:24:59;;;;;;;9.45;3.22;;;;;;;8.77;100.00;96962.00;5026779;28;20489;-72
2021/12/31 09:27:25;;;;;;;4.70;2.53;;;;;;;8.57;100.00;96962.25;5046705;28;20467;-71
2021/12/31 09:29:51;;;;;;;8.90;2.88;;;;;;;8.59;100.00;96958.31;5046250;28;20108;-70
2021/12/31 09:32:16;;;;;;;4.63;2.15;;;;;;;8.68;100.00;96974.03;5044957;28;20135;-70
2021/12/31 09:34:44;;;;;;;6.72;2.88;;;;;;;8.85;100.00;96967.03;5046308;28;20456;-70
2021/12/31 09:37:11;;;;;;;7.22;2.70;;;;;;;8.96;100.00;96965.47;5043652;28;20049;-71
2021/12/31 09:39:37;;;;;;;7.97;2.78;;;;;;;9.10;100.00;96949.03;5027645;28;20048;-70
2021/12/31 09:42:05;;;;;;;7.70;2.83;;;;;;;9.65;100.00;96950.66;5044836;28;20054;-71
2021/12/31 09:44:35;;;;;;;8.93;2.60;;;;;;;10.12;100.00;96948.84;5045596;28;20036;-70
2021/12/31 09:47:09;;;;;;;5.72;2.08;;;;;;;10.19;100.00;96943.34;5044993;28;20049;-71
2021/12/31 09:49:37;;;;;;;7.30;2.40;;;;;;;10.39;100.00;96953.72;5045191;28;20392;-71
2021/12/31 09:52:03;;;;;;;10.52;3.58;;;;;;;10.89;100.00;96956.63;5045374;28;20032;-71
2021/12/31 09:54:28;;;;;;;7.13;2.30;;;;;;;11.20;100.00;96958.00;5044168;28;20055;-71
2021/12/31 09:56:57;;;;;;;7.00;2.08;;;;;;;11.55;100.00;96957.84;5043415;28;20044;-71
2021/12/31 09:59:24;;;;;;;4.80;1.77;;;;;;;11.81;100.00;96964.47;5045426;28;20052;-71
2021/12/31 10:01:53;;;;;;;5.50;2.22;;;;;;;11.01;100.00;96957.41;5043805;28;20464;-73
2021/12/31 10:04:20;;;;;;;9.20;2.10;;;;;;;10.50;100.00;96958.25;5045051;28;20044;-70
2021/12/31 10:07:08;;;;;;;10.82;1.92;;;;;;;10.28;100.00;96952.72;5045284;28;20441;-71
2021/12/31 10:09:35;;;;;;;4.22;1.77;;;;;;;9.94;100.00;96965.81;5044747;28;20499;-70
2021/12/31 10:12:01;;;;;;;7.05;2.40;;;;;;;9.86;100.00;96978.72;5044832;28;20065;-71
2021/12/31 10:14:38;;;;;;;7.85;2.58;;;;;;;9.81;100.00;96973.25;5027176;28;20041;-72
2021/12/31 10:17:08;;;;;;;7.05;3.03;;;;;;;9.73;100.00;96967.19;5041009;28;20047;-72
2021/12/31 10:19:34;;;;;;;6.95;2.05;;;;;;;9.75;100.00;96958.94;5046728;28;20037;-71
2021/12/31 10:22:00;;;;;;;10.30;2.95;;;;;;;9.76;100.00;96963.25;5049008;28;20387;-71
2021/12/31 10:24:37;;;;;;;8.32;2.50;;;;;;;9.82;100.00;96961.53;5044013;28;20025;-71
2021/12/31 10:27:03;;;;;;;4.82;2.10;;;;;;;9.73;100.00;96958.38;5042699;28;20391;-72
2021/12/31 10:29:28;;;;;;;6.18;2.33;;;;;;;9.53;100.00;96964.03;5045461;28;20037;-71
2021/12/31 10:31:55;;;;;;;8.13;3.13;;;;;;;9.53;100.00;96956.00;5042983;28;20106;-72
2021/12/31 10:34:37;;;;;;;9.40;4.15;;;;;;;9.49;100.00;96962.84;5043754;28;20032;-71
2021/12/31 10:37:17;;;;;;;6.50;2.47;;;;;;;9.41;100.00;96950.63;5043508;28;20345;-72
2021/12/31 10:39:44;;;;;;;4.60;2.08;;;;;;;9.60;100.00;96937.19;5043836;28;20045;-71
2021/12/31 10:42:14;;;;;;;11.32;2.97;;;;;;;9.88;100.00;96936.50;5045194;28;20473;-70
2021/12/31 10:44:50;;;;;;;5.70;2.50;;;;;;;11.76;100.00;96929.50;5028113;28;20045;-71
2021/12/31 10:47:21;;;;;;;6.82;2.97;;;;;;;12.58;100.00;96928.00;5042710;28;20048;-72
2021/12/31 10:50:01;;;;;;;3.90;2.10;;;;;;;12.05;100.00;96916.00;5044172;28;20035;-71
2021/12/31 10:52:56;;;;;;;3.25;1.45;;;;;;;10.77;100.00;96905.81;5042371;28;20094;-71
2021/12/31 10:55:27;;;;;;;4.30;1.30;;;;;;;10.30;100.00;96915.84;5043371;28;20484;-70
2021/12/31 10:58:01;;;;;;;6.40;2.03;;;;;;;10.25;100.00;96913.84;5042921;28;20116;-70
2021/12/31 11:00:32;;;;;;;4.55;1.90;;;;;;;10.11;100.00;96917.78;5043148;28;20844;-71
2021/12/31 11:03:01;;;;;;;8.35;2.90;;;;;;;9.98;100.00;96904.69;5044020;28;20032;-71
2021/12/31 11:05:27;;;;;;;7.93;2.05;;;;;;;9.94;100.00;96917.69;5044795;28;20435;-70
2021/12/31 11:07:53;;;;;;;4.65;1.85;;;;;;;9.92;100.00;96925.13;5042927;28;20064;-72
2021/12/31 11:10:27;;;;;;;7.95;1.90;;;;;;;9.83;100.00;96918.50;5043033;28;20033;-71
2021/12/31 11:12:54;;;;;;;4.30;1.75;;;;;;;9.79;100.00;96917.34;5044392;28;20047;-73
2021/12/31 11:15:20;;;;;;;5.72;2.08;;;;;;;9.89;100.00;96919.44;5044662;28;20075;-71
2021/12/31 11:17:45;;;;;;;5.78;1.88;;;;;;;9.85;100.00;96924.44;5043812;28;20056;-71
2021/12/31 11:20:18;;;;;;;6.20;1.85;;;;;;;9.68;100.00;96921.63;5044082;28;20037;-70
2021/12/31 11:22:43;;;;;;;9.77;2.78;;;;;;;9.62;100.00;96909.19;5045233;28;20025;-71
2021/12/31 11:25:18;;;;;;;5.85;2.13;;;;;;;9.71;100.00;96918.50;5043030;28;20036;-70
2021/12/31 11:27:47;;;;;;;7.53;1.95;;;;;;;10.01;100.00;96912.22;5043670;28;20426;-71
2021/12/31 11:30:28;;;;;;;8.70;2.40;;;;;;;10.49;100.00;96903.91;5046146;28;20037;-71
2021/12/31 11:32:56;;;;;;;5.97;2.20;;;;;;;11.74;100.00;96899.44;5046984;28;20069;-71